createdAt,value
2017-11-30T00:01:45.192Z,114.28
2017-11-30T00:04:13.063Z,108.55
2017-11-30T00:06:40.917Z,107.37
2017-11-30T00:09:08.754Z,104.70
2017-11-30T00:11:36.594Z,102.72
2017-11-30T00:14:04.426Z,105.05
2017-11-30T00:16:32.379Z,97.55
2017-11-30T00:19:00.285Z,114.97
2017-11-30T00:21:28.154Z,100.20
2017-11-30T00:23:55.990Z,110.47
2017-11-30T00:26:23.858Z,112.40
2017-11-30T00:28:51.687Z,93.93
2017-11-30T00:31:19.552Z,111.37
2017-11-30T00:33:47.438Z,114.40
2017-11-30T00:36:15.281Z,119.60
2017-11-30T00:38:43.113Z,116.00
2017-11-30T00:41:10.963Z,124.32
2017-11-30T00:43:39.793Z,114.68
2017-11-30T00:46:07.611Z,105.40
2017-11-30T00:48:35.461Z,94.15
2017-11-30T00:51:03.283Z,114.88
2017-11-30T00:53:31.127Z,93.35
2017-11-30T00:55:58.953Z,115.37
2017-11-30T00:58:26.793Z,109.07
2017-11-30T01:00:54.665Z,114.57
2017-11-30T01:03:22.517Z,121.00
2017-11-30T01:05:50.385Z,106.12
2017-11-30T01:08:18.253Z,113.18
2017-11-30T01:10:46.121Z,105.55
2017-11-30T01:13:14.244Z,99.35
2017-11-30T01:15:42.084Z,99.68
2017-11-30T01:18:09.933Z,117.93
2017-11-30T01:20:37.835Z,105.70
2017-11-30T01:23:05.677Z,95.57
2017-11-30T01:25:33.518Z,98.57
2017-11-30T01:28:02.357Z,94.93
2017-11-30T01:30:30.189Z,108.65
2017-11-30T01:32:58.094Z,110.03
2017-11-30T01:35:25.973Z,116.37
2017-11-30T01:37:53.827Z,92.20
2017-11-30T01:40:21.669Z,89.47
2017-11-30T01:42:49.521Z,105.95
2017-11-30T01:45:17.395Z,97.93
2017-11-30T01:47:45.260Z,90.57
2017-11-30T01:50:13.093Z,95.70
2017-11-30T01:52:40.933Z,78.60
2017-11-30T01:55:08.805Z,98.70
2017-11-30T01:57:36.665Z,100.10
2017-11-30T02:00:04.517Z,95.22
2017-11-30T02:02:32.380Z,107.85
2017-11-30T02:05:00.226Z,103.97
2017-11-30T02:07:28.094Z,98.53
2017-11-30T02:09:55.977Z,92.78
2017-11-30T02:12:23.833Z,83.20
2017-11-30T02:14:51.706Z,85.43
2017-11-30T02:17:19.545Z,77.68
2017-11-30T02:19:47.369Z,74.95
2017-11-30T02:22:15.207Z,87.78
2017-11-30T02:24:43.113Z,80.93
2017-11-30T02:27:10.953Z,85.90
2017-11-30T02:29:38.832Z,76.40
2017-11-30T02:32:07.203Z,80.15
2017-11-30T02:34:35.085Z,81.25
2017-11-30T02:37:02.979Z,81.57
2017-11-30T02:39:31.101Z,86.37
2017-11-30T02:41:58.954Z,75.87
2017-11-30T02:44:26.802Z,80.82
2017-11-30T02:46:54.659Z,90.32
2017-11-30T02:49:22.518Z,84.55
2017-11-30T02:51:50.363Z,78.60
2017-11-30T02:54:18.195Z,89.32
2017-11-30T02:56:46.039Z,83.97
2017-11-30T02:59:13.901Z,88.80
2017-11-30T03:01:41.771Z,83.30
2017-11-30T03:04:09.633Z,80.07
2017-11-30T03:06:37.513Z,79.18
2017-11-30T03:09:05.370Z,78.50
2017-11-30T03:11:33.272Z,106.07
2017-11-30T03:14:01.144Z,99.65
2017-11-30T03:16:29.037Z,102.03
2017-11-30T03:18:56.909Z,95.30
2017-11-30T03:21:24.749Z,119.97
2017-11-30T03:23:52.597Z,115.10
2017-11-30T03:26:20.446Z,82.55
2017-11-30T03:28:48.299Z,109.47
2017-11-30T03:31:16.160Z,90.30
2017-11-30T03:33:44.008Z,95.78
2017-11-30T03:36:11.845Z,106.90
2017-11-30T03:38:39.684Z,98.20
2017-11-30T03:41:07.547Z,95.47
2017-11-30T03:43:35.413Z,99.32
2017-11-30T03:46:03.292Z,111.10
2017-11-30T03:48:31.152Z,95.40
2017-11-30T03:50:59.857Z,91.78
2017-11-30T03:53:27.717Z,92.75
2017-11-30T03:55:56.064Z,97.60
2017-11-30T03:58:23.944Z,114.37
2017-11-30T04:00:51.788Z,93.75
2017-11-30T04:03:19.672Z,89.05
2017-11-30T04:05:47.501Z,93.80
2017-11-30T04:08:15.379Z,82.30
2017-11-30T04:10:43.205Z,95.47
2017-11-30T04:13:11.047Z,103.15
2017-11-30T04:15:38.896Z,113.57
2017-11-30T04:18:06.755Z,122.68
2017-11-30T04:20:34.629Z,91.03
2017-11-30T04:23:03.458Z,117.37
2017-11-30T04:25:32.299Z,91.03
2017-11-30T04:28:00.163Z,105.15
2017-11-30T04:30:28.016Z,106.03
2017-11-30T04:32:55.876Z,107.20
2017-11-30T04:35:23.744Z,90.65
2017-11-30T04:37:51.711Z,84.18
2017-11-30T04:40:19.565Z,83.85
2017-11-30T04:42:47.422Z,93.15
2017-11-30T04:45:15.251Z,62.00
2017-11-30T04:47:43.077Z,85.45
2017-11-30T04:50:10.886Z,76.85
2017-11-30T04:52:38.739Z,81.30
2017-11-30T04:55:06.605Z,93.25
2017-11-30T04:57:34.441Z,69.32
2017-11-30T05:00:02.443Z,71.22
2017-11-30T05:02:30.274Z,72.80
2017-11-30T05:04:58.137Z,82.80
2017-11-30T05:07:25.964Z,84.80
2017-11-30T05:09:53.810Z,77.25
2017-11-30T05:12:21.663Z,92.10
2017-11-30T05:14:49.516Z,83.03
2017-11-30T05:17:17.390Z,97.70
2017-11-30T05:19:45.260Z,86.00
2017-11-30T05:22:13.085Z,97.85
2017-11-30T05:24:40.944Z,89.22
2017-11-30T05:27:08.849Z,115.45
2017-11-30T05:29:36.752Z,105.93
2017-11-30T05:32:04.623Z,108.75
2017-11-30T05:34:32.473Z,108.07
2017-11-30T05:37:00.378Z,113.82
2017-11-30T05:39:28.223Z,107.72
2017-11-30T05:41:56.063Z,114.88
2017-11-30T05:44:23.892Z,119.18
2017-11-30T05:46:51.746Z,118.70
2017-11-30T05:49:19.572Z,111.53
2017-11-30T05:51:47.416Z,115.30
2017-11-30T05:54:15.235Z,126.20
2017-11-30T05:56:43.914Z,100.28
2017-11-30T05:59:11.745Z,133.18
2017-11-30T06:01:39.580Z,122.35
2017-11-30T06:04:07.410Z,108.45
2017-11-30T06:06:35.241Z,123.22
2017-11-30T06:09:03.103Z,123.87
2017-11-30T06:11:30.946Z,118.03
2017-11-30T06:13:58.775Z,100.22
2017-11-30T06:16:26.901Z,116.57
2017-11-30T06:18:54.753Z,120.45
2017-11-30T06:21:22.599Z,103.18
2017-11-30T06:23:50.457Z,123.00
2017-11-30T06:26:20.018Z,126.78
2017-11-30T06:28:48.653Z,114.47
2017-11-30T06:31:18.244Z,122.07
2017-11-30T06:33:46.166Z,126.12
2017-11-30T06:36:15.071Z,106.03
2017-11-30T06:38:42.917Z,126.65
2017-11-30T06:41:10.769Z,116.72
2017-11-30T06:43:38.633Z,128.48
2017-11-30T06:46:06.581Z,133.37
2017-11-30T06:48:34.465Z,140.20
2017-11-30T06:51:02.331Z,121.68
2017-11-30T06:53:30.192Z,91.60
2017-11-30T06:55:58.069Z,130.50
2017-11-30T06:58:25.936Z,121.62
2017-11-30T07:00:53.774Z,135.48
2017-11-30T07:03:21.620Z,114.72
2017-11-30T07:05:49.430Z,132.07
2017-11-30T07:08:17.303Z,149.02
2017-11-30T07:10:45.161Z,134.20
2017-11-30T07:13:13.058Z,102.53
2017-11-30T07:15:40.906Z,150.07
2017-11-30T07:18:08.782Z,134.73
2017-11-30T07:20:36.629Z,132.48
2017-11-30T07:23:04.493Z,150.40
2017-11-30T07:25:32.362Z,113.68
2017-11-30T07:28:00.209Z,154.52
2017-11-30T07:30:28.085Z,146.00
2017-11-30T07:32:55.948Z,154.70
2017-11-30T07:35:23.798Z,137.52
2017-11-30T07:37:51.665Z,143.90
2017-11-30T07:40:19.520Z,138.12
2017-11-30T07:42:47.368Z,134.00
2017-11-30T07:45:15.190Z,138.95
2017-11-30T07:47:43.021Z,130.45
2017-11-30T07:50:10.845Z,131.18
2017-11-30T07:52:38.674Z,124.20
2017-11-30T07:55:06.520Z,96.37
2017-11-30T07:57:34.394Z,122.20
2017-11-30T08:00:02.263Z,112.80
2017-11-30T08:02:30.098Z,123.28
2017-11-30T08:04:57.910Z,115.18
2017-11-30T08:07:25.738Z,116.37
2017-11-30T08:09:53.586Z,101.40
2017-11-30T08:12:21.444Z,91.22
2017-11-30T08:14:49.279Z,94.50
2017-11-30T08:17:17.127Z,92.90
2017-11-30T08:19:44.978Z,77.32
2017-11-30T08:22:12.814Z,85.97
2017-11-30T08:24:40.678Z,83.60
2017-11-30T08:27:08.514Z,86.18
2017-11-30T08:29:36.357Z,81.72
2017-11-30T08:32:04.190Z,65.62
2017-11-30T08:34:32.008Z,76.15
2017-11-30T08:36:59.836Z,81.18
2017-11-30T08:39:27.669Z,84.28
2017-11-30T08:41:55.490Z,84.65
2017-11-30T08:44:23.347Z,88.00
2017-11-30T08:46:51.167Z,77.53
2017-11-30T08:49:19.015Z,81.45
2017-11-30T08:51:47.690Z,85.12
2017-11-30T08:54:15.526Z,90.10
2017-11-30T08:56:43.358Z,82.43
2017-11-30T08:59:11.220Z,89.37
2017-11-30T09:01:39.105Z,106.50
2017-11-30T09:04:06.955Z,65.40
2017-11-30T09:06:34.795Z,83.47
2017-11-30T09:09:02.635Z,103.57
2017-11-30T09:11:30.488Z,88.10
2017-11-30T09:13:58.356Z,86.18
2017-11-30T09:16:26.194Z,62.10
2017-11-30T09:18:54.038Z,94.60
2017-11-30T09:21:21.914Z,80.25
2017-11-30T09:23:49.831Z,89.37
2017-11-30T09:26:17.697Z,71.05
2017-11-30T09:28:45.529Z,92.47
2017-11-30T09:31:13.413Z,59.17
2017-11-30T09:33:41.284Z,78.05
2017-11-30T09:36:09.198Z,96.90
2017-11-30T09:38:37.071Z,79.30
2017-11-30T09:41:04.978Z,56.70
2017-11-30T09:43:32.852Z,65.20
2017-11-30T09:46:00.729Z,60.55
2017-11-30T09:48:28.542Z,59.80
2017-11-30T09:50:56.425Z,62.47
2017-11-30T09:53:25.163Z,69.57
2017-11-30T09:55:53.042Z,63.80
2017-11-30T09:58:20.890Z,65.75
2017-11-30T10:00:48.751Z,53.78
2017-11-30T10:03:16.595Z,54.88
2017-11-30T10:05:44.422Z,49.33
2017-11-30T10:08:12.260Z,58.53
2017-11-30T10:10:40.093Z,66.55
2017-11-30T10:13:07.930Z,64.85
2017-11-30T10:15:35.781Z,62.53
2017-11-30T10:18:03.655Z,84.35
2017-11-30T10:20:31.483Z,59.70
2017-11-30T10:22:59.342Z,71.00
2017-11-30T10:25:27.196Z,71.10
2017-11-30T10:27:55.042Z,80.57
2017-11-30T10:30:22.861Z,79.45
2017-11-30T10:32:50.681Z,95.05
2017-11-30T10:35:18.517Z,74.65
2017-11-30T10:37:46.354Z,72.10
2017-11-30T10:40:14.197Z,78.85
2017-11-30T10:42:42.031Z,76.47
2017-11-30T10:45:09.865Z,79.55
2017-11-30T10:47:37.694Z,70.82
2017-11-30T10:50:05.540Z,76.10
2017-11-30T10:52:33.391Z,81.97
2017-11-30T10:55:01.222Z,67.87
2017-11-30T10:57:29.082Z,63.35
2017-11-30T10:59:56.954Z,57.15
2017-11-30T11:02:24.798Z,61.40
2017-11-30T11:04:52.643Z,63.15
2017-11-30T11:07:20.486Z,60.90
2017-11-30T11:09:48.335Z,69.47
2017-11-30T11:12:16.160Z,60.12
2017-11-30T11:14:44.060Z,72.65
2017-11-30T11:17:11.898Z,64.43
2017-11-30T11:19:39.746Z,76.28
2017-11-30T11:22:07.598Z,69.95
2017-11-30T11:24:35.444Z,86.80
2017-11-30T11:27:04.617Z,81.45
2017-11-30T11:29:32.795Z,79.95
2017-11-30T11:32:00.635Z,81.43
2017-11-30T11:34:28.464Z,75.85
2017-11-30T11:36:56.323Z,75.43
2017-11-30T11:39:24.153Z,79.12
2017-11-30T11:41:52.007Z,79.40
2017-11-30T11:44:19.830Z,80.75
2017-11-30T11:46:47.687Z,77.22
2017-11-30T11:49:15.543Z,76.90
2017-11-30T11:51:43.384Z,75.32
2017-11-30T11:54:11.230Z,66.68
2017-11-30T11:56:39.068Z,84.65
2017-11-30T11:59:06.898Z,81.95
2017-11-30T12:01:34.745Z,86.65
2017-11-30T12:04:02.569Z,81.37
2017-11-30T12:06:30.391Z,86.55
2017-11-30T12:08:58.214Z,90.10
2017-11-30T12:11:26.043Z,94.85
2017-11-30T12:13:53.858Z,85.60
2017-11-30T12:16:21.667Z,88.70
2017-11-30T12:18:49.490Z,73.90
2017-11-30T12:21:17.341Z,102.93
2017-11-30T12:23:45.178Z,85.72
2017-11-30T12:26:13.017Z,72.03
2017-11-30T12:28:40.826Z,50.50
2017-11-30T12:31:08.682Z,77.32
2017-11-30T12:33:36.514Z,61.72
2017-11-30T12:36:04.335Z,73.10
2017-11-30T12:38:32.189Z,71.00
2017-11-30T12:41:00.057Z,73.97
2017-11-30T12:43:27.900Z,73.30
2017-11-30T12:45:55.742Z,75.25
2017-11-30T12:48:23.604Z,64.78
2017-11-30T12:50:51.465Z,70.05
2017-11-30T12:53:19.299Z,68.95
2017-11-30T12:55:47.123Z,63.75
2017-11-30T12:58:14.959Z,63.10
2017-11-30T13:00:42.809Z,63.05
2017-11-30T13:03:10.648Z,72.05
2017-11-30T13:05:38.492Z,77.03
2017-11-30T13:08:06.404Z,68.78
2017-11-30T13:10:34.244Z,67.05
2017-11-30T13:13:02.115Z,77.10
2017-11-30T13:15:29.944Z,75.00
2017-11-30T13:17:57.787Z,71.85
2017-11-30T13:20:26.471Z,71.68
2017-11-30T13:22:54.292Z,63.55
2017-11-30T13:25:22.949Z,87.70
2017-11-30T13:27:50.785Z,80.22
2017-11-30T13:30:18.649Z,70.68
2017-11-30T13:32:46.519Z,65.18
2017-11-30T13:35:14.371Z,67.25
2017-11-30T13:37:42.274Z,67.32
2017-11-30T13:40:10.139Z,68.15
2017-11-30T13:42:38.007Z,80.20
2017-11-30T13:45:05.848Z,71.70
2017-11-30T13:47:33.667Z,51.58
2017-11-30T13:50:01.503Z,69.32
2017-11-30T13:52:29.332Z,65.18
2017-11-30T13:54:57.192Z,68.28
2017-11-30T13:57:25.029Z,66.18
2017-11-30T13:59:52.862Z,60.28
2017-11-30T14:02:20.699Z,59.90
2017-11-30T14:04:48.541Z,74.68
2017-11-30T14:07:16.388Z,68.78
2017-11-30T14:09:44.237Z,67.53
2017-11-30T14:12:12.096Z,54.08
2017-11-30T14:14:39.930Z,51.80
2017-11-30T14:17:07.755Z,58.87
2017-11-30T14:19:35.580Z,63.72
2017-11-30T14:22:03.423Z,55.88
2017-11-30T14:24:31.251Z,52.35
2017-11-30T14:26:59.098Z,56.75
2017-11-30T14:29:26.948Z,55.58
2017-11-30T14:31:54.754Z,47.78
2017-11-30T14:34:22.582Z,51.63
2017-11-30T14:36:50.457Z,53.50
2017-11-30T14:39:18.315Z,50.65
2017-11-30T14:41:46.190Z,48.17
2017-11-30T14:44:14.012Z,61.08
2017-11-30T14:46:41.836Z,64.78
2017-11-30T14:49:09.672Z,56.75
2017-11-30T14:51:37.514Z,46.33
2017-11-30T14:54:05.377Z,51.42
2017-11-30T14:56:33.193Z,54.97
2017-11-30T14:59:01.008Z,53.42
2017-11-30T15:01:28.837Z,52.35
2017-11-30T15:03:56.636Z,50.10
2017-11-30T15:06:24.462Z,52.67
2017-11-30T15:08:52.489Z,58.53
2017-11-30T15:11:20.337Z,58.97
2017-11-30T15:13:48.204Z,54.17
2017-11-30T15:16:16.066Z,61.90
2017-11-30T15:18:43.890Z,60.97
2017-11-30T15:21:11.714Z,50.00
2017-11-30T15:23:39.532Z,54.45
2017-11-30T15:26:07.360Z,61.35
2017-11-30T15:28:35.192Z,58.90
2017-11-30T15:31:03.016Z,56.67
2017-11-30T15:33:30.872Z,60.33
2017-11-30T15:35:58.674Z,67.75
2017-11-30T15:38:26.512Z,58.30
2017-11-30T15:40:55.337Z,54.03
2017-11-30T15:43:23.165Z,52.92
2017-11-30T15:45:50.992Z,54.13
2017-11-30T15:48:18.833Z,55.30
2017-11-30T15:50:46.703Z,46.05
2017-11-30T15:53:14.524Z,52.15
2017-11-30T15:55:42.365Z,45.50
2017-11-30T15:58:10.235Z,51.80
2017-11-30T16:00:38.089Z,52.58
2017-11-30T16:03:05.924Z,47.28
2017-11-30T16:05:33.753Z,47.50
2017-11-30T16:08:01.621Z,52.80
2017-11-30T16:10:29.482Z,45.53
2017-11-30T16:12:57.332Z,57.45
2017-11-30T16:15:25.172Z,48.97
2017-11-30T16:17:53.021Z,52.38
2017-11-30T16:20:20.884Z,53.17
2017-11-30T16:22:48.749Z,50.60
2017-11-30T16:25:16.584Z,50.90
2017-11-30T16:27:44.441Z,61.72
2017-11-30T16:30:12.305Z,51.97
2017-11-30T16:32:40.157Z,58.17
2017-11-30T16:35:08.022Z,60.03
2017-11-30T16:37:35.885Z,75.72
2017-11-30T16:40:03.690Z,73.30
2017-11-30T16:42:31.550Z,58.00
2017-11-30T16:44:59.421Z,76.28
2017-11-30T16:47:27.280Z,77.72
2017-11-30T16:49:55.129Z,70.97
2017-11-30T16:52:23.008Z,60.60
2017-11-30T16:54:50.920Z,70.07
2017-11-30T16:57:18.785Z,60.28
2017-11-30T16:59:46.608Z,73.32
2017-11-30T17:02:14.457Z,69.93
2017-11-30T17:04:42.264Z,68.10
2017-11-30T17:07:10.309Z,69.95
2017-11-30T17:09:38.125Z,68.40
2017-11-30T17:12:05.993Z,70.00
2017-11-30T17:14:33.831Z,63.10
2017-11-30T17:17:01.672Z,72.20
2017-11-30T17:19:29.532Z,58.83
2017-11-30T17:21:57.383Z,74.05
2017-11-30T17:24:25.200Z,54.13
2017-11-30T17:26:53.037Z,58.90
2017-11-30T17:29:20.857Z,71.32
2017-11-30T17:31:48.699Z,66.60
2017-11-30T17:34:16.513Z,69.32
2017-11-30T17:36:44.328Z,68.32
2017-11-30T17:39:12.137Z,60.08
2017-11-30T17:41:39.960Z,54.08
2017-11-30T17:44:07.785Z,68.32
2017-11-30T17:46:35.628Z,71.03
2017-11-30T17:49:03.449Z,60.12
2017-11-30T17:51:31.293Z,50.97
2017-11-30T17:53:59.133Z,52.85
2017-11-30T17:56:26.963Z,49.83
2017-11-30T17:58:54.800Z,51.55
2017-11-30T18:01:22.630Z,52.90
2017-11-30T18:03:50.492Z,47.95
2017-11-30T18:06:18.324Z,37.20
2017-11-30T18:08:46.175Z,42.42
2017-11-30T18:11:14.041Z,51.42
2017-11-30T18:13:41.969Z,61.92
2017-11-30T18:16:09.745Z,52.97
2017-11-30T18:18:37.584Z,47.65
2017-11-30T18:21:05.410Z,55.95
2017-11-30T18:23:33.240Z,56.25
2017-11-30T18:26:01.246Z,52.92
2017-11-30T18:28:29.159Z,56.97
2017-11-30T18:30:56.971Z,47.38
2017-11-30T18:33:24.815Z,53.80
2017-11-30T18:35:52.645Z,66.40
2017-11-30T18:38:20.756Z,56.30
2017-11-30T18:40:48.649Z,52.72
2017-11-30T18:43:16.514Z,51.78
2017-11-30T18:45:44.344Z,56.25
2017-11-30T18:48:12.208Z,58.78
2017-11-30T18:50:40.072Z,58.28
2017-11-30T18:53:07.910Z,53.85
2017-11-30T18:55:35.756Z,51.70
2017-11-30T18:58:03.589Z,60.40
2017-11-30T19:00:31.418Z,56.83
2017-11-30T19:02:59.273Z,56.72
2017-11-30T19:05:27.122Z,51.37
2017-11-30T19:07:54.944Z,62.78
2017-11-30T19:10:22.811Z,50.47
2017-11-30T19:12:50.684Z,38.20
2017-11-30T19:15:18.513Z,40.90
2017-11-30T19:17:46.351Z,36.08
2017-11-30T19:20:14.232Z,31.25
2017-11-30T19:22:42.049Z,44.67
2017-11-30T19:25:09.880Z,37.45
2017-11-30T19:27:37.718Z,38.35
2017-11-30T19:30:05.569Z,34.72
2017-11-30T19:32:33.393Z,41.40
2017-11-30T19:35:01.237Z,35.28
2017-11-30T19:37:29.070Z,41.60
2017-11-30T19:39:56.878Z,50.92
2017-11-30T19:42:24.721Z,43.80
2017-11-30T19:44:52.569Z,42.42
2017-11-30T19:47:20.391Z,45.92
2017-11-30T19:49:48.218Z,44.38
2017-11-30T19:52:16.067Z,32.22
2017-11-30T19:54:43.888Z,29.35
2017-11-30T19:57:11.718Z,37.75
2017-11-30T19:59:39.540Z,54.97
2017-11-30T20:02:07.364Z,39.92
2017-11-30T20:04:35.219Z,34.20
2017-11-30T20:07:03.044Z,34.10
2017-11-30T20:09:30.893Z,41.70
2017-11-30T20:11:58.777Z,43.10
2017-11-30T20:14:26.608Z,49.35
2017-11-30T20:16:54.433Z,49.53
2017-11-30T20:19:22.326Z,72.43
2017-11-30T20:21:50.144Z,58.47
2017-11-30T20:24:17.968Z,64.93
2017-11-30T20:26:45.797Z,66.70
2017-11-30T20:29:13.600Z,70.03
2017-11-30T20:31:41.425Z,76.47
2017-11-30T20:34:09.256Z,63.78
2017-11-30T20:36:37.085Z,68.45
2017-11-30T20:39:04.935Z,76.95
2017-11-30T20:41:32.782Z,76.53
2017-11-30T20:44:00.592Z,85.82
2017-11-30T20:46:28.460Z,78.95
2017-11-30T20:48:56.277Z,86.15
2017-11-30T20:51:24.112Z,93.20
2017-11-30T20:53:51.956Z,92.57
2017-11-30T20:56:19.824Z,77.05
2017-11-30T20:58:47.875Z,87.57
2017-11-30T21:01:15.807Z,66.87
2017-11-30T21:03:43.863Z,82.60
2017-11-30T21:06:11.837Z,75.50
2017-11-30T21:08:39.700Z,83.70
2017-11-30T21:11:07.799Z,81.28
2017-11-30T21:13:35.649Z,70.25
2017-11-30T21:16:03.480Z,78.78
2017-11-30T21:18:31.328Z,63.65
2017-11-30T21:20:59.184Z,79.18
2017-11-30T21:23:27.012Z,67.12
2017-11-30T21:25:55.836Z,62.67
2017-11-30T21:28:23.669Z,61.55
2017-11-30T21:30:51.507Z,67.50
2017-11-30T21:33:19.364Z,66.93
2017-11-30T21:35:47.193Z,56.15
2017-11-30T21:38:15.054Z,58.90
2017-11-30T21:40:42.920Z,66.50
2017-11-30T21:43:10.760Z,66.78
2017-11-30T21:45:38.585Z,76.47
2017-11-30T21:48:06.420Z,62.28
2017-11-30T21:50:34.263Z,64.72
2017-11-30T21:53:02.124Z,62.50
2017-11-30T21:55:29.952Z,68.70
2017-11-30T21:57:57.814Z,64.85
2017-11-30T22:00:25.660Z,57.08
2017-11-30T22:02:53.507Z,57.00
2017-11-30T22:05:21.324Z,68.87
2017-11-30T22:07:49.176Z,72.18
2017-11-30T22:10:17.000Z,62.80
2017-11-30T22:12:44.848Z,57.40
2017-11-30T22:15:12.709Z,58.55
2017-11-30T22:17:40.579Z,55.15
2017-11-30T22:20:08.446Z,59.70
2017-11-30T22:22:36.301Z,56.45
2017-11-30T22:25:04.165Z,64.53
2017-11-30T22:27:32.030Z,65.70
2017-11-30T22:29:59.921Z,62.30
2017-11-30T22:32:27.776Z,63.00
2017-11-30T22:34:55.666Z,57.83
2017-11-30T22:37:23.553Z,71.07
2017-11-30T22:39:57.454Z,54.95
2017-11-30T22:42:25.298Z,57.10
2017-11-30T22:44:53.156Z,57.50
2017-11-30T22:47:21.004Z,66.43
2017-11-30T22:49:49.634Z,52.50
2017-11-30T22:52:17.460Z,63.55
2017-11-30T22:54:45.388Z,64.00
2017-11-30T22:57:13.149Z,63.00
2017-11-30T22:59:40.994Z,59.97
2017-11-30T23:02:08.812Z,54.55
2017-11-30T23:04:36.650Z,56.22
2017-11-30T23:07:04.476Z,56.53
2017-11-30T23:09:32.304Z,54.85
2017-11-30T23:12:00.181Z,65.00
2017-11-30T23:14:28.020Z,54.30
2017-11-30T23:16:55.854Z,63.58
2017-11-30T23:19:23.720Z,60.50
2017-11-30T23:21:51.549Z,64.68
2017-11-30T23:24:19.376Z,58.45
2017-11-30T23:26:47.172Z,65.15
2017-11-30T23:29:15.045Z,60.53
2017-11-30T23:31:42.872Z,58.92
2017-11-30T23:34:10.784Z,62.22
2017-11-30T23:36:38.642Z,58.30
2017-11-30T23:39:06.508Z,62.67
2017-11-30T23:41:34.328Z,49.55
2017-11-30T23:44:02.154Z,56.70
2017-11-30T23:46:30.007Z,50.38
2017-11-30T23:48:57.828Z,58.53
2017-11-30T23:51:25.667Z,50.97
2017-11-30T23:53:53.533Z,49.72
2017-11-30T23:56:21.358Z,63.80
2017-11-30T23:58:49.180Z,56.95
